Time;durP1;ratioP1;P1;durP2;ratioP2;P2;SDS_P1;SDS_P2;PMS_P1;PMS_P2;Temp;Humidity;BMP_temperature;BMP_pressure;BME280_temperature;BME280_humidity;BME280_pressure;Samples;Min_cycle;Max_cycle;Signal;HPM_P1;HPM_P2
2022/09/09 04:01:28;;;;;;;4.63;4.22;;;13.10;99.90;;;;;;5502059;23;20818;-68
2022/09/09 04:03:57;;;;;;;7.47;5.95;;;13.10;99.90;;;;;;4971864;28;20268;-68
2022/09/09 04:06:25;;;;;;;5.85;4.68;;;13.10;99.90;;;;;;4971334;28;20208;-68
2022/09/09 04:08:52;;;;;;;5.35;4.78;;;13.10;99.90;;;;;;4972066;28;20225;-68
2022/09/09 04:11:19;;;;;;;8.50;4.65;;;13.10;99.90;;;;;;4971317;28;20237;-68
2022/09/09 04:13:46;;;;;;;5.88;4.63;;;13.10;99.90;;;;;;4971555;28;20206;-68
2022/09/09 04:16:14;;;;;;;4.70;4.32;;;13.10;99.90;;;;;;4972183;28;20243;-68
2022/09/09 04:18:42;;;;;;;4.55;4.05;;;13.10;99.90;;;;;;4972107;28;20218;-68
2022/09/09 04:21:11;;;;;;;6.38;5.82;;;13.10;99.90;;;;;;4971490;28;20234;-70
2022/09/09 04:23:37;;;;;;;5.57;4.83;;;13.20;99.90;;;;;;4971587;28;20210;-70
2022/09/09 04:26:04;;;;;;;6.22;5.13;;;13.20;99.90;;;;;;4971261;28;20476;-69
2022/09/09 04:28:34;;;;;;;5.10;4.57;;;13.20;99.90;;;;;;4971891;28;20490;-68
2022/09/09 04:31:06;;;;;;;5.60;4.53;;;13.20;99.90;;;;;;4971944;28;20257;-66
2022/09/09 04:33:32;;;;;;;5.43;5.00;;;13.20;99.90;;;;;;4967435;28;20973;-69
2022/09/09 04:36:00;;;;;;;9.15;5.20;;;13.30;99.90;;;;;;4969498;28;20883;-68
2022/09/09 04:38:27;;;;;;;4.72;4.40;;;13.30;99.90;;;;;;4975232;28;20219;-69
2022/09/09 04:40:54;;;;;;;5.13;4.72;;;13.30;99.90;;;;;;4982213;28;20224;-69
2022/09/09 04:43:22;;;;;;;4.72;4.38;;;13.40;99.90;;;;;;4991109;28;20216;-68
2022/09/09 04:45:49;;;;;;;9.23;4.82;;;13.40;99.90;;;;;;4974336;28;20358;-68
2022/09/09 04:48:16;;;;;;;5.18;4.70;;;13.40;99.90;;;;;;4971529;28;20702;-69
2022/09/09 04:50:43;;;;;;;6.93;4.53;;;13.40;99.90;;;;;;4971127;28;20233;-68
2022/09/09 04:53:11;;;;;;;5.43;5.03;;;13.40;99.90;;;;;;4969996;28;20472;-67
2022/09/09 04:55:38;;;;;;;6.90;5.30;;;13.40;99.90;;;;;;4982260;28;20484;-68
2022/09/09 04:58:05;;;;;;;7.53;4.87;;;13.50;99.90;;;;;;4991132;28;20542;-69
2022/09/09 05:00:33;;;;;;;4.65;4.35;;;13.40;99.90;;;;;;4990623;28;21054;-70
2022/09/09 05:03:03;;;;;;;3.73;3.57;;;13.50;99.90;;;;;;4990904;28;20570;-71
2022/09/09 05:05:30;;;;;;;3.27;3.03;;;13.50;99.90;;;;;;4990840;28;20492;-69
2022/09/09 05:08:02;;;;;;;8.10;3.80;;;13.50;99.90;;;;;;4987815;28;20471;-69
2022/09/09 05:10:30;;;;;;;3.17;2.93;;;13.50;99.90;;;;;;4975367;28;20900;-69
2022/09/09 05:12:57;;;;;;;4.13;3.70;;;13.60;99.90;;;;;;4985844;28;20461;-69
2022/09/09 05:15:24;;;;;;;2.90;2.70;;;13.60;99.90;;;;;;4994484;28;20466;-68
2022/09/09 05:17:52;;;;;;;7.33;4.60;;;13.60;99.90;;;;;;4994291;28;20972;-69
2022/09/09 05:20:19;;;;;;;4.87;4.57;;;13.60;99.90;;;;;;4994102;28;20471;-69
2022/09/09 05:22:45;;;;;;;3.37;3.17;;;13.60;99.90;;;;;;4987441;28;20469;-68
2022/09/09 05:25:12;;;;;;;4.03;3.70;;;13.60;99.90;;;;;;4985713;28;20942;-69
2022/09/09 05:27:40;;;;;;;4.57;3.53;;;13.60;99.90;;;;;;4994127;28;20472;-71
2022/09/09 05:30:08;;;;;;;3.53;2.77;;;13.60;99.90;;;;;;4993914;28;20469;-70
2022/09/09 05:32:36;;;;;;;4.30;4.00;;;13.60;99.90;;;;;;4993420;28;20492;-72
2022/09/09 05:35:03;;;;;;;3.43;3.17;;;13.60;99.90;;;;;;4972134;28;20477;-70
2022/09/09 05:37:31;;;;;;;5.40;3.83;;;13.70;99.90;;;;;;4974073;28;20492;-70
2022/09/09 05:39:58;;;;;;;3.53;3.30;;;13.70;99.90;;;;;;4960548;28;20486;-70
2022/09/09 05:42:25;;;;;;;4.73;4.33;;;13.70;99.90;;;;;;4975559;28;21040;-69
2022/09/09 05:44:54;;;;;;;5.33;3.80;;;13.80;99.90;;;;;;4987271;28;20457;-70
2022/09/09 05:47:20;;;;;;;2.80;2.70;;;13.80;99.90;;;;;;4993707;28;20464;-70
2022/09/09 05:49:47;;;;;;;2.63;2.53;;;13.90;99.90;;;;;;4993584;28;21019;-69
2022/09/09 05:52:14;;;;;;;2.97;2.87;;;14.00;99.90;;;;;;4993508;28;20794;-70
2022/09/09 05:54:42;;;;;;;2.23;2.13;;;14.00;99.90;;;;;;4988408;28;20996;-69
2022/09/09 05:57:09;;;;;;;2.80;2.70;;;14.10;99.90;;;;;;4978448;28;20839;-70
2022/09/09 05:59:36;;;;;;;4.10;3.90;;;14.10;99.90;;;;;;4993120;28;20472;-71
2022/09/09 06:02:04;;;;;;;3.03;2.63;;;14.10;99.90;;;;;;4993425;28;20506;-70
2022/09/09 06:04:31;;;;;;;2.37;2.30;;;14.10;99.90;;;;;;4993394;28;20465;-70
2022/09/09 06:06:57;;;;;;;2.07;1.97;;;14.20;99.90;;;;;;4977758;28;20474;-70
2022/09/09 06:09:24;;;;;;;1.70;1.70;;;14.10;99.90;;;;;;4991659;28;20464;-71
2022/09/09 06:11:51;;;;;;;1.97;1.87;;;14.20;99.90;;;;;;4992876;28;20485;-70
2022/09/09 06:14:18;;;;;;;2.50;2.30;;;14.20;99.90;;;;;;4993523;28;20475;-70
2022/09/09 06:16:45;;;;;;;1.40;1.40;;;14.20;99.90;;;;;;4992754;28;20513;-70
2022/09/09 06:19:14;;;;;;;1.57;1.47;;;14.20;99.90;;;;;;4988281;28;20473;-71
2022/09/09 06:21:42;;;;;;;2.20;2.10;;;14.30;99.90;;;;;;4973270;28;20577;-71
2022/09/09 06:24:08;;;;;;;2.30;2.20;;;14.20;99.90;;;;;;4969501;28;20822;-71
2022/09/09 06:26:37;;;;;;;5.70;2.83;;;14.30;99.90;;;;;;4973215;28;20458;-70
2022/09/09 06:29:05;;;;;;;1.83;1.83;;;14.30;99.90;;;;;;4973884;28;20470;-71
2022/09/09 06:31:34;;;;;;;1.50;1.50;;;14.30;99.90;;;;;;4973548;28;20511;-70
2022/09/09 06:34:02;;;;;;;2.23;2.13;;;14.40;99.90;;;;;;4973395;28;20502;-70
2022/09/09 06:36:31;;;;;;;2.00;1.90;;;14.40;99.90;;;;;;4967745;28;20486;-69
2022/09/09 06:38:58;;;;;;;2.93;1.80;;;14.40;99.90;;;;;;4984647;28;20502;-69
2022/09/09 06:41:27;;;;;;;1.73;1.73;;;14.40;99.90;;;;;;4984814;28;20485;-70
2022/09/09 06:43:55;;;;;;;2.20;2.10;;;14.50;99.90;;;;;;4993222;28;20466;-69
2022/09/09 06:46:23;;;;;;;2.73;1.43;;;14.50;99.90;;;;;;4992694;28;20460;-70
2022/09/09 06:48:50;;;;;;;2.17;2.17;;;14.60;99.90;;;;;;4993364;28;20473;-71
2022/09/09 06:51:20;;;;;;;1.73;1.63;;;14.60;99.90;;;;;;4992464;28;20496;-70
2022/09/09 06:53:51;;;;;;;2.60;2.50;;;14.60;99.90;;;;;;4979521;28;20474;-70
2022/09/09 06:56:23;;;;;;;2.63;2.23;;;14.60;99.90;;;;;;4989438;28;20486;-70
2022/09/09 06:58:51;;;;;;;2.03;1.73;;;14.60;99.90;;;;;;4993394;28;20477;-70
2022/09/09 07:01:19;;;;;;;2.03;1.93;;;14.60;99.90;;;;;;4994644;28;20576;-70
2022/09/09 07:03:49;;;;;;;2.43;2.33;;;14.70;99.90;;;;;;4995417;28;20468;-70
2022/09/09 07:06:18;;;;;;;1.57;1.57;;;14.80;99.90;;;;;;4996610;28;20472;-70
2022/09/09 07:08:51;;;;;;;3.00;2.60;;;14.90;99.90;;;;;;4992818;28;20487;-70
2022/09/09 07:11:20;;;;;;;1.80;1.80;;;15.00;99.90;;;;;;4984472;28;20487;-70
2022/09/09 07:13:47;;;;;;;1.57;1.57;;;15.00;99.90;;;;;;4986783;28;20474;-71
2022/09/09 07:16:16;;;;;;;2.30;2.20;;;15.10;99.90;;;;;;4974222;28;20535;-70
2022/09/09 07:18:44;;;;;;;2.67;1.83;;;15.20;99.90;;;;;;4973070;28;20973;-71
2022/09/09 07:21:12;;;;;;;4.00;2.37;;;15.30;99.90;;;;;;4972529;28;20564;-71
2022/09/09 07:23:39;;;;;;;2.40;2.30;;;15.40;99.90;;;;;;4973426;28;20472;-70
2022/09/09 07:26:11;;;;;;;1.80;1.70;;;15.50;99.90;;;;;;4976360;28;20849;-70
2022/09/09 07:28:38;;;;;;;1.87;1.87;;;15.50;99.90;;;;;;4983413;28;20546;-70
2022/09/09 07:31:06;;;;;;;6.63;2.07;;;15.70;99.90;;;;;;4991584;28;20858;-70
2022/09/09 07:33:35;;;;;;;2.50;2.40;;;15.70;99.90;;;;;;4991865;28;20948;-70
2022/09/09 07:36:08;;;;;;;1.30;1.30;;;15.80;99.90;;;;;;4991001;28;20551;-71
2022/09/09 07:38:39;;;;;;;2.87;1.67;;;16.00;99.90;;;;;;4991607;28;20464;-71
2022/09/09 07:41:11;;;;;;;1.60;1.60;;;16.00;99.90;;;;;;4991666;28;20520;-70
2022/09/09 07:43:40;;;;;;;1.27;1.27;;;16.10;99.90;;;;;;4978771;28;20474;-71
2022/09/09 07:46:08;;;;;;;2.03;2.03;;;16.20;99.90;;;;;;4985425;28;20496;-71
2022/09/09 07:48:35;;;;;;;1.63;1.63;;;16.30;99.90;;;;;;4991773;28;20457;-71
2022/09/09 07:51:07;;;;;;;1.43;1.43;;;16.50;99.90;;;;;;4975608;28;20494;-70
2022/09/09 07:53:36;;;;;;;1.93;1.93;;;16.50;99.90;;;;;;4979652;28;21047;-70
2022/09/09 07:56:09;;;;;;;1.63;1.53;;;16.50;99.90;;;;;;4972209;28;20476;-70
2022/09/09 07:58:36;;;;;;;1.57;1.57;;;16.60;99.90;;;;;;4970437;28;20477;-70
2022/09/09 08:01:09;;;;;;;1.67;1.57;;;16.70;99.90;;;;;;4975444;28;20496;-71
2022/09/09 08:03:36;;;;;;;1.67;1.57;;;16.70;99.90;;;;;;4972902;28;20460;-70
2022/09/09 08:06:03;;;;;;;3.93;2.30;;;16.80;99.90;;;;;;4972533;28;20473;-70
2022/09/09 08:08:30;;;;;;;1.27;1.27;;;17.00;99.90;;;;;;4973277;28;20492;-69
2022/09/09 08:11:03;;;;;;;1.70;1.70;;;17.10;99.90;;;;;;4972302;28;20494;-71
2022/09/09 08:13:31;;;;;;;1.40;1.40;;;17.20;99.90;;;;;;4971883;28;20477;-70
2022/09/09 08:16:05;;;;;;;1.30;1.30;;;17.20;99.90;;;;;;4974163;28;20945;-70
2022/09/09 08:18:33;;;;;;;1.50;1.50;;;17.30;99.90;;;;;;4983497;28;20467;-72
2022/09/09 08:21:08;;;;;;;4.33;1.50;;;17.20;99.90;;;;;;4990904;28;20483;-71
2022/09/09 08:23:34;;;;;;;1.40;1.40;;;17.20;99.90;;;;;;4980405;28;20857;-71
2022/09/09 08:26:05;;;;;;;1.30;1.30;;;17.30;99.90;;;;;;4971115;28;20462;-72
2022/09/09 08:28:32;;;;;;;1.53;1.53;;;17.30;99.90;;;;;;4972081;28;20484;-71
2022/09/09 08:31:10;;;;;;;1.40;1.40;;;17.40;99.90;;;;;;4971771;28;20547;-72
2022/09/09 08:33:39;;;;;;;2.10;1.10;;;17.40;99.90;;;;;;4973945;28;20817;-69
2022/09/09 08:36:06;;;;;;;5.43;1.70;;;17.50;99.90;;;;;;4986233;28;20465;-72
2022/09/09 08:38:33;;;;;;;2.30;1.60;;;17.60;99.90;;;;;;4991063;28;20500;-72
2022/09/09 08:41:18;;;;;;;1.00;1.00;;;17.60;99.90;;;;;;4992389;28;20485;-72
2022/09/09 08:43:49;;;;;;;1.07;1.07;;;17.70;99.90;;;;;;4962379;28;20468;-71
2022/09/09 08:46:21;;;;;;;0.90;0.90;;;17.70;99.90;;;;;;4994858;28;20488;-72
2022/09/09 08:48:57;;;;;;;1.40;1.40;;;17.80;99.90;;;;;;4988757;28;20483;-72
2022/09/09 08:51:27;;;;;;;1.30;1.30;;;17.90;99.90;;;;;;4982933;28;20866;-70
2022/09/09 08:53:55;;;;;;;1.03;1.03;;;18.10;99.90;;;;;;4975723;28;20466;-69
2022/09/09 08:56:24;;;;;;;1.20;1.10;;;18.30;99.90;;;;;;4974930;28;20474;-70
2022/09/09 08:58:53;;;;;;;1.20;1.20;;;18.40;99.90;;;;;;4975543;28;20817;-70
2022/09/09 09:01:34;;;;;;;3.70;1.40;;;18.50;99.90;;;;;;4974959;28;20498;-70
2022/09/09 09:04:08;;;;;;;1.10;1.10;;;18.50;99.90;;;;;;4975311;28;20473;-70
2022/09/09 09:06:51;;;;;;;1.27;1.27;;;18.40;99.90;;;;;;4976510;28;20472;-70
2022/09/09 09:09:23;;;;;;;1.40;1.40;;;18.40;99.90;;;;;;4978139;28;20467;-69
2022/09/09 09:11:53;;;;;;;1.63;1.63;;;18.50;99.90;;;;;;4974592;28;20491;-70
2022/09/09 09:14:23;;;;;;;1.37;1.37;;;18.60;99.90;;;;;;4974036;28;20467;-71
2022/09/09 09:16:53;;;;;;;1.40;1.40;;;18.80;99.90;;;;;;4975081;28;20487;-71
2022/09/09 09:19:25;;;;;;;3.30;1.57;;;18.80;99.90;;;;;;4975434;28;20467;-69
2022/09/09 09:21:59;;;;;;;1.40;1.40;;;18.70;99.90;;;;;;4974742;28;20963;-69
2022/09/09 09:24:34;;;;;;;1.43;1.43;;;18.80;99.90;;;;;;4982574;28;20456;-71
2022/09/09 09:27:12;;;;;;;1.50;1.50;;;19.00;99.90;;;;;;4975606;28;20510;-69
2022/09/09 09:29:40;;;;;;;1.33;1.33;;;19.00;99.90;;;;;;4975255;28;20482;-72
2022/09/09 09:32:15;;;;;;;1.23;1.13;;;19.00;99.90;;;;;;4974932;28;20494;-71
2022/09/09 09:34:43;;;;;;;1.03;1.03;;;19.00;99.90;;;;;;4975200;28;20468;-72
2022/09/09 09:37:19;;;;;;;1.23;1.23;;;19.10;99.90;;;;;;4975345;28;20522;-71
2022/09/09 09:39:46;;;;;;;1.30;1.30;;;19.00;99.90;;;;;;4976923;28;20791;-71
2022/09/09 09:42:17;;;;;;;1.00;1.00;;;19.00;99.90;;;;;;4982501;28;20569;-72
2022/09/09 09:44:44;;;;;;;1.00;1.00;;;19.10;99.90;;;;;;4976797;28;20464;-71
2022/09/09 09:47:14;;;;;;;1.03;1.03;;;19.10;99.90;;;;;;4991896;28;22013;-71
2022/09/09 09:49:51;;;;;;;1.03;1.03;;;19.00;99.90;;;;;;4979258;28;20481;-71
2022/09/09 09:52:23;;;;;;;1.10;1.10;;;19.10;99.90;;;;;;4980245;28;20553;-71
2022/09/09 09:54:50;;;;;;;1.40;1.40;;;19.10;99.90;;;;;;4981272;28;20858;-71
2022/09/09 09:57:18;;;;;;;1.07;1.07;;;19.20;99.90;;;;;;4984098;28;20979;-70
2022/09/09 09:59:46;;;;;;;1.13;1.13;;;19.30;99.90;;;;;;4995368;28;20463;-71
2022/09/09 10:02:16;;;;;;;1.50;1.40;;;19.30;99.90;;;;;;4998007;28;20499;-71
2022/09/09 10:04:45;;;;;;;0.80;0.80;;;19.40;99.90;;;;;;4993801;28;20473;-71
2022/09/09 10:07:12;;;;;;;1.40;0.93;;;19.30;99.90;;;;;;4993247;28;20459;-70
2022/09/09 10:09:41;;;;;;;2.83;1.07;;;19.40;99.90;;;;;;4993298;28;20472;-71
2022/09/09 10:12:20;;;;;;;0.57;0.57;;;19.60;99.90;;;;;;4983405;28;20572;-71
2022/09/09 10:14:56;;;;;;;1.60;0.90;;;19.70;99.90;;;;;;4974882;28;20467;-71
2022/09/09 10:17:31;;;;;;;0.70;0.70;;;19.80;99.90;;;;;;5006711;23;20503;-71
2022/09/09 10:20:13;;;;;;;1.10;1.10;;;19.90;99.90;;;;;;4992137;28;20474;-71
2022/09/09 10:22:45;;;;;;;0.70;0.70;;;20.00;99.90;;;;;;4991715;28;20972;-71
2022/09/09 10:25:41;;;;;;;1.20;0.70;;;20.10;99.90;;;;;;4971973;28;20473;-71
2022/09/09 10:28:40;;;;;;;0.63;0.63;;;20.10;99.90;;;;;;4980922;28;20511;-71
2022/09/09 10:31:19;;;;;;;1.10;1.10;;;20.30;99.90;;;;;;4972387;28;20543;-71
2022/09/09 10:33:51;;;;;;;0.40;0.40;;;20.50;99.90;;;;;;4972538;28;20465;-72
2022/09/09 10:36:21;;;;;;;0.70;0.70;;;20.70;99.90;;;;;;4971908;28;20476;-72
2022/09/09 10:38:51;;;;;;;1.47;0.70;;;20.70;99.90;;;;;;4972648;28;20490;-72
2022/09/09 10:41:27;;;;;;;0.50;0.50;;;20.80;99.90;;;;;;4975156;28;20472;-72
2022/09/09 10:44:20;;;;;;;0.50;0.50;;;20.90;99.90;;;;;;4982673;28;20469;-72
2022/09/09 10:47:24;;;;;;;0.63;0.63;;;21.10;99.90;;;;;;4984419;28;20506;-72
2022/09/09 10:50:09;;;;;;;0.50;0.50;;;21.20;99.90;;;;;;4991693;28;20584;-72
2022/09/09 10:52:44;;;;;;;0.97;0.77;;;21.20;99.90;;;;;;4991304;28;20592;-72
2022/09/09 10:55:14;;;;;;;0.40;0.40;;;21.30;99.90;;;;;;4991013;28;20483;-72
2022/09/09 10:57:47;;;;;;;0.50;0.50;;;21.30;99.90;;;;;;4980128;28;20864;-72
2022/09/09 11:00:19;;;;;;;0.50;0.50;;;21.40;99.90;;;;;;4972483;28;20565;-72
2022/09/09 11:02:48;;;;;;;0.60;0.60;;;21.20;99.90;;;;;;4972440;28;20960;-72
2022/09/09 11:05:20;;;;;;;0.60;0.60;;;21.10;99.90;;;;;;4972306;28;20480;-72
2022/09/09 11:07:52;;;;;;;0.40;0.40;;;21.00;99.90;;;;;;4971929;28;21044;-72
2022/09/09 11:10:25;;;;;;;0.97;0.70;;;21.10;99.90;;;;;;4971882;28;20536;-72
2022/09/09 11:12:57;;;;;;;0.50;0.50;;;21.00;99.90;;;;;;4981166;28;20958;-72
2022/09/09 11:15:31;;;;;;;0.33;0.33;;;20.80;99.90;;;;;;4983353;28;20561;-72
2022/09/09 11:18:02;;;;;;;0.43;0.43;;;20.80;99.90;;;;;;4955889;28;1037138;-72
2022/09/09 11:20:29;;;;;;;0.60;0.60;;;20.80;99.90;;;;;;4992244;28;20881;-72
2022/09/09 11:23:00;;;;;;;0.90;0.90;;;20.80;99.90;;;;;;4991297;28;20499;-72
2022/09/09 11:25:33;;;;;;;1.50;1.00;;;20.80;99.90;;;;;;4991953;28;20548;-72
2022/09/09 11:28:16;;;;;;;0.63;0.63;;;20.70;99.90;;;;;;4982520;28;20587;-72
2022/09/09 11:30:55;;;;;;;0.67;0.67;;;20.60;99.90;;;;;;4980399;28;20464;-72
2022/09/09 11:33:48;;;;;;;0.90;0.87;;;20.50;99.90;;;;;;4972324;28;20468;-72
2022/09/09 11:36:41;;;;;;;0.50;0.50;;;20.50;99.90;;;;;;4972168;28;20496;-72
2022/09/09 11:39:37;;;;;;;0.87;0.80;;;20.40;99.90;;;;;;4970404;28;21036;-72
2022/09/09 11:42:08;;;;;;;0.67;0.67;;;20.40;99.90;;;;;;4983478;28;20949;-71
2022/09/09 11:44:36;;;;;;;0.80;0.80;;;20.30;99.90;;;;;;4982010;28;20936;-72
2022/09/09 11:47:03;;;;;;;2.73;1.00;;;20.20;99.90;;;;;;4976811;28;20481;-72
2022/09/09 11:50:12;;;;;;;3.40;1.30;;;20.00;99.90;;;;;;4972362;28;20463;-72
2022/09/09 11:52:42;;;;;;;1.63;1.63;;;19.90;99.90;;;;;;4971507;28;20479;-71
2022/09/09 11:55:25;;;;;;;2.80;1.40;;;19.60;99.90;;;;;;4972388;28;20474;-72
2022/09/09 11:57:59;;;;;;;0.80;0.80;;;19.40;99.90;;;;;;4974380;28;20561;-72
2022/09/09 12:00:34;;;;;;;3.30;1.07;;;19.00;99.90;;;;;;4978009;28;20472;-71
2022/09/09 12:03:01;;;;;;;0.80;0.80;;;18.70;99.90;;;;;;4981058;28;20468;-72
2022/09/09 12:05:38;;;;;;;1.13;1.00;;;18.50;99.90;;;;;;4983257;28;20471;-72
2022/09/09 12:08:06;;;;;;;1.10;1.10;;;18.40;99.90;;;;;;4991300;28;21024;-72
2022/09/09 12:10:36;;;;;;;1.40;1.40;;;18.50;99.90;;;;;;4991233;28;20461;-72
2022/09/09 12:13:16;;;;;;;1.93;1.70;;;18.50;99.90;;;;;;4991007;28;20583;-72
2022/09/09 12:15:50;;;;;;;1.73;1.73;;;18.60;99.90;;;;;;4990905;28;20468;-72
2022/09/09 12:18:23;;;;;;;1.37;1.37;;;18.60;99.90;;;;;;4980505;28;20651;-72
2022/09/09 12:20:58;;;;;;;1.20;1.20;;;18.60;99.90;;;;;;4990851;28;20501;-72
2022/09/09 12:23:35;;;;;;;1.20;1.10;;;18.60;99.90;;;;;;4990943;28;20466;-73
2022/09/09 12:26:20;;;;;;;1.60;1.60;;;18.50;99.90;;;;;;4990656;28;20543;-72
2022/09/09 12:29:06;;;;;;;2.17;2.07;;;18.60;99.90;;;;;;4991316;28;20471;-72
2022/09/09 12:31:41;;;;;;;1.50;1.50;;;18.50;99.90;;;;;;4981505;28;20570;-72
2022/09/09 12:34:14;;;;;;;1.23;1.23;;;18.50;99.90;;;;;;4975383;28;20565;-72
2022/09/09 12:36:41;;;;;;;1.07;1.07;;;18.70;99.90;;;;;;4970961;28;20493;-72
2022/09/09 12:39:18;;;;;;;0.90;0.90;;;18.90;99.90;;;;;;4971502;28;21108;-72
2022/09/09 12:41:56;;;;;;;1.87;1.53;;;19.00;99.90;;;;;;4971104;28;20482;-72
2022/09/09 12:44:23;;;;;;;1.30;1.30;;;19.20;99.90;;;;;;4971809;28;20470;-72
2022/09/09 12:46:54;;;;;;;1.80;1.70;;;19.40;99.90;;;;;;4982309;28;20494;-72
2022/09/09 12:49:30;;;;;;;1.00;1.00;;;19.50;99.90;;;;;;4977231;28;20870;-72
2022/09/09 12:51:58;;;;;;;1.30;1.30;;;19.60;99.90;;;;;;4977096;28;20646;-72
2022/09/09 12:54:25;;;;;;;1.30;1.30;;;19.60;99.90;;;;;;4971320;28;20476;-72
2022/09/09 12:56:52;;;;;;;0.83;0.83;;;19.60;99.90;;;;;;4971202;28;20500;-72
2022/09/09 12:59:24;;;;;;;1.27;1.27;;;19.70;99.90;;;;;;4977842;28;20487;-72
2022/09/09 13:01:58;;;;;;;1.00;1.00;;;19.90;99.90;;;;;;4979850;28;20459;-72
2022/09/09 13:04:24;;;;;;;2.53;1.33;;;20.00;99.90;;;;;;4988649;28;20464;-72
2022/09/09 13:06:52;;;;;;;1.17;1.17;;;20.10;99.90;;;;;;4990518;28;20591;-72
2022/09/09 13:09:20;;;;;;;1.20;1.20;;;20.20;99.90;;;;;;4990961;28;20455;-72
2022/09/09 13:11:50;;;;;;;0.83;0.83;;;20.30;99.90;;;;;;4990176;28;20463;-72
2022/09/09 13:14:25;;;;;;;1.13;1.13;;;20.40;99.90;;;;;;4984396;28;21005;-72
2022/09/09 13:16:59;;;;;;;7.47;1.63;;;20.50;99.90;;;;;;4984267;28;20493;-72
2022/09/09 13:19:27;;;;;;;1.10;1.10;;;20.50;99.90;;;;;;4990705;28;20491;-72
2022/09/09 13:21:54;;;;;;;1.10;1.10;;;20.60;99.90;;;;;;4990141;28;20463;-72
2022/09/09 13:24:31;;;;;;;9.10;1.23;;;20.60;99.90;;;;;;4990503;28;20471;-72
2022/09/09 13:26:58;;;;;;;1.20;1.20;;;20.60;99.90;;;;;;4988665;28;20483;-72
2022/09/09 13:29:25;;;;;;;1.07;1.07;;;20.50;99.90;;;;;;4984379;28;20456;-72
2022/09/09 13:31:53;;;;;;;1.87;1.87;;;20.30;99.90;;;;;;4994302;28;20551;-72
2022/09/09 13:34:30;;;;;;;1.20;1.20;;;20.20;99.90;;;;;;4994224;28;20474;-72
2022/09/09 13:37:02;;;;;;;0.83;0.83;;;20.10;99.90;;;;;;4993694;28;20567;-72
2022/09/09 13:39:29;;;;;;;1.43;1.30;;;20.00;99.90;;;;;;4994363;28;20474;-72
2022/09/09 13:41:57;;;;;;;1.40;1.40;;;19.90;99.90;;;;;;4992718;28;20911;-72
2022/09/09 13:44:27;;;;;;;1.10;1.00;;;19.90;99.90;;;;;;4985308;28;20478;-72
2022/09/09 13:47:05;;;;;;;0.97;0.97;;;19.80;99.90;;;;;;4993626;28;20814;-72
2022/09/09 13:49:33;;;;;;;0.90;0.90;;;19.80;99.90;;;;;;4993930;28;20466;-72
2022/09/09 13:52:07;;;;;;;1.07;1.07;;;19.70;99.90;;;;;;4993668;28;20488;-72
2022/09/09 13:54:34;;;;;;;0.97;0.97;;;19.70;99.90;;;;;;4993170;28;20565;-72
2022/09/09 13:57:02;;;;;;;1.00;1.00;;;19.70;99.90;;;;;;4985707;28;20530;-72
2022/09/09 13:59:29;;;;;;;1.10;1.10;;;19.60;99.90;;;;;;4992240;28;20494;-72
2022/09/09 14:01:56;;;;;;;1.27;1.27;;;19.60;99.90;;;;;;4994027;28;20474;-72
2022/09/09 14:04:23;;;;;;;1.40;1.30;;;19.60;99.90;;;;;;4993626;28;20791;-72
2022/09/09 14:06:52;;;;;;;0.80;0.77;;;19.50;99.90;;;;;;4993150;28;20572;-72
2022/09/09 14:09:20;;;;;;;1.07;1.07;;;19.30;99.90;;;;;;4993075;28;20477;-71
2022/09/09 14:11:47;;;;;;;0.53;0.53;;;19.10;99.90;;;;;;4983775;28;20502;-72
2022/09/09 14:14:13;;;;;;;1.67;0.97;;;19.00;99.90;;;;;;4977185;28;20687;-72
2022/09/09 14:16:40;;;;;;;0.70;0.70;;;18.90;99.90;;;;;;4973979;28;20518;-72
2022/09/09 14:19:08;;;;;;;0.50;0.50;;;18.80;99.90;;;;;;4974169;28;20819;-72
2022/09/09 14:21:35;;;;;;;0.50;0.50;;;18.70;99.90;;;;;;4973133;28;20470;-71
2022/09/09 14:24:03;;;;;;;1.90;1.03;;;18.60;99.90;;;;;;4973423;28;20872;-71
2022/09/09 14:26:30;;;;;;;0.33;0.33;;;18.40;99.90;;;;;;4991262;28;20500;-71
2022/09/09 14:28:57;;;;;;;0.50;0.50;;;18.30;99.90;;;;;;4993088;28;20473;-71
2022/09/09 14:31:24;;;;;;;1.00;1.00;;;18.20;99.90;;;;;;4982286;28;20472;-72
2022/09/09 14:33:52;;;;;;;0.40;0.40;;;18.00;99.90;;;;;;4973439;28;20471;-71
2022/09/09 14:36:19;;;;;;;0.60;0.60;;;17.90;99.90;;;;;;4972904;28;20947;-71
2022/09/09 14:38:46;;;;;;;0.60;0.60;;;17.90;99.90;;;;;;4972972;28;20852;-72
2022/09/09 14:41:17;;;;;;;0.43;0.43;;;17.80;99.90;;;;;;4972790;28;20469;-71
2022/09/09 14:43:45;;;;;;;0.50;0.50;;;17.80;99.90;;;;;;4974350;28;20985;-71
2022/09/09 14:46:13;;;;;;;0.73;0.73;;;17.70;99.90;;;;;;4984550;28;20488;-71
2022/09/09 14:48:40;;;;;;;0.40;0.40;;;17.60;99.90;;;;;;4993003;28;20590;-71
2022/09/09 14:51:08;;;;;;;3.23;0.73;;;17.50;99.90;;;;;;4992267;28;20538;-70
2022/09/09 14:53:35;;;;;;;4.33;0.87;;;17.40;99.90;;;;;;4992640;28;20511;-70
2022/09/09 14:56:06;;;;;;;1.40;0.70;;;17.30;99.90;;;;;;4992100;28;20491;-70
2022/09/09 14:58:34;;;;;;;0.57;0.57;;;17.20;99.90;;;;;;4991876;28;20480;-70
2022/09/09 15:01:05;;;;;;;3.93;3.63;;;17.20;99.90;;;;;;4984351;28;20531;-71
2022/09/09 15:03:33;;;;;;;1.10;1.10;;;17.10;99.90;;;;;;4992350;28;20494;-71
2022/09/09 15:06:05;;;;;;;0.73;0.73;;;17.00;99.90;;;;;;4992042;28;20474;-71
2022/09/09 15:08:31;;;;;;;1.27;0.67;;;17.00;99.90;;;;;;4992635;28;20445;-71
2022/09/09 15:11:01;;;;;;;0.73;0.73;;;17.00;99.90;;;;;;4991712;28;20471;-71
2022/09/09 15:13:27;;;;;;;0.60;0.60;;;17.00;99.90;;;;;;4980432;28;20469;-71
2022/09/09 15:15:57;;;;;;;0.60;0.60;;;16.90;99.90;;;;;;4978683;28;20551;-71
2022/09/09 15:18:25;;;;;;;0.80;0.80;;;16.90;99.90;;;;;;4972385;28;20555;-71
2022/09/09 15:20:53;;;;;;;1.17;1.17;;;17.00;99.90;;;;;;4972234;28;20467;-71
2022/09/09 15:23:19;;;;;;;1.50;1.50;;;17.00;99.90;;;;;;4972450;28;20464;-72
2022/09/09 15:25:53;;;;;;;1.17;1.17;;;17.10;99.90;;;;;;4972345;28;20470;-72
2022/09/09 15:28:19;;;;;;;1.13;1.13;;;17.10;99.90;;;;;;4982673;28;20492;-71
2022/09/09 15:30:48;;;;;;;1.03;0.77;;;17.10;99.90;;;;;;4972713;28;20469;-72
2022/09/09 15:33:17;;;;;;;0.60;0.60;;;17.20;99.90;;;;;;4972389;28;20470;-72
2022/09/09 15:35:43;;;;;;;0.87;0.87;;;17.20;99.90;;;;;;4972090;28;20795;-72
2022/09/09 15:38:12;;;;;;;0.83;0.83;;;17.10;99.90;;;;;;4981409;28;20495;-71
2022/09/09 15:40:39;;;;;;;0.90;0.90;;;17.10;99.90;;;;;;4980026;28;20495;-72
2022/09/09 15:43:07;;;;;;;2.93;1.83;;;17.20;99.90;;;;;;4972343;28;20846;-72
2022/09/09 15:45:33;;;;;;;1.13;1.10;;;17.20;99.90;;;;;;4973124;28;20468;-72
2022/09/09 15:48:00;;;;;;;2.60;2.50;;;17.20;99.90;;;;;;4983869;28;20505;-72
2022/09/09 15:50:31;;;;;;;4.03;3.73;;;17.20;99.90;;;;;;4995637;28;20459;-72
2022/09/09 15:52:58;;;;;;;1.70;1.60;;;17.30;99.90;;;;;;4996052;28;20545;-72
2022/09/09 15:55:25;;;;;;;2.93;2.83;;;17.40;99.90;;;;;;4994298;28;20464;-72
2022/09/09 15:57:53;;;;;;;1.93;1.83;;;17.50;99.90;;;;;;4993061;28;20485;-72
2022/09/09 16:00:20;;;;;;;1.30;1.23;;;17.50;99.90;;;;;;4988154;28;20487;-72
2022/09/09 16:02:47;;;;;;;1.20;1.20;;;17.60;99.90;;;;;;4972552;28;20470;-72
2022/09/09 16:05:14;;;;;;;1.50;1.50;;;17.60;99.90;;;;;;4972657;28;20973;-72
2022/09/09 16:07:43;;;;;;;1.13;1.13;;;17.60;99.90;;;;;;4971753;28;20501;-72
2022/09/09 16:10:10;;;;;;;3.23;3.03;;;17.60;99.90;;;;;;4972006;28;20502;-72
2022/09/09 16:12:38;;;;;;;2.40;2.40;;;17.70;99.90;;;;;;4972139;28;20466;-72
2022/09/09 16:15:07;;;;;;;2.67;2.57;;;17.70;99.90;;;;;;4980302;28;20505;-72
2022/09/09 16:17:37;;;;;;;2.60;2.50;;;17.70;99.90;;;;;;5011269;23;21416;-71
2022/09/09 16:20:06;;;;;;;3.13;2.80;;;17.80;99.90;;;;;;4972556;28;20477;-71
2022/09/09 16:22:33;;;;;;;6.33;5.93;;;17.80;99.90;;;;;;4972456;28;20472;-70
2022/09/09 16:25:01;;;;;;;3.07;2.87;;;17.80;99.90;;;;;;4972189;28;20469;-72
2022/09/09 16:27:28;;;;;;;3.63;3.50;;;17.90;99.90;;;;;;4971675;28;20558;-71
2022/09/09 16:29:55;;;;;;;3.47;3.27;;;17.90;99.90;;;;;;4963911;28;21175;-71
2022/09/09 16:32:22;;;;;;;2.10;2.10;;;18.00;99.90;;;;;;4979200;28;20481;-72
2022/09/09 16:34:48;;;;;;;2.37;2.27;;;18.00;99.90;;;;;;4979101;28;20461;-71
2022/09/09 16:37:15;;;;;;;3.20;3.00;;;18.00;99.90;;;;;;4990765;28;20900;-71
2022/09/09 16:39:42;;;;;;;2.27;2.13;;;17.90;99.90;;;;;;4977180;28;20484;-71
2022/09/09 16:42:10;;;;;;;5.60;4.43;;;17.90;99.90;;;;;;4975721;28;20466;-71
2022/09/09 16:44:37;;;;;;;2.70;2.60;;;17.90;99.90;;;;;;4971896;28;20472;-71
2022/09/09 16:47:04;;;;;;;3.40;3.30;;;17.90;99.90;;;;;;4971897;28;20838;-71
2022/09/09 16:49:30;;;;;;;3.60;3.40;;;17.90;99.90;;;;;;4971626;28;20486;-71
2022/09/09 16:51:59;;;;;;;2.50;2.40;;;17.90;99.90;;;;;;4973092;28;20842;-71
2022/09/09 16:54:26;;;;;;;2.23;2.13;;;17.80;99.90;;;;;;4970766;28;20837;-70
2022/09/09 16:56:53;;;;;;;3.30;3.00;;;17.80;99.90;;;;;;4971606;28;20471;-71
2022/09/09 16:59:22;;;;;;;2.20;2.10;;;17.80;99.90;;;;;;4971318;28;20496;-71
2022/09/09 17:01:51;;;;;;;1.73;1.60;;;17.70;99.90;;;;;;4972715;28;20474;-71
2022/09/09 17:04:21;;;;;;;1.43;1.43;;;17.70;99.90;;;;;;4975119;28;20469;-71